Flugplatz Lübeck-Blankensee (EDHL)

Hier findest Du alle Informationen zum Flugplatz Lübeck-Blankensee (EDHL).

Informationen für Piloten zum Flugplatz Lübeck-Blankensee

Hier findest Du alle relevanten Informationen, die Du als Pilot benötigst, um Lübeck-Blankensee anzufliegen.

Flugplatz: Lübeck-Blankensee ICAO-Code: EDHL
Frequenz Turm: 128,700 Mhz GAFOR Gebiet: 4
Frequenz Ground: 128,700 Mhz Mogas: nein
Platzrunde: N 0 ft Landegebühr: -
Platzhöhe: - Sunrise: 07:24 Uhr UTC
Pisten: 07/25 - 1.922 m x 60 m, ASPH Sunset: 14:58 Uhr UTC

Flugwetter am Flugplatz Lübeck-Blankensee

Die METAR Information stammen aus EDHL.

METAR Code:
2019/12/01 09:20
EDHL 010920Z 20003KT 170V270 2000 -RA BR OVC002 01/01 Q1022

Temperatur: 1,3 °C Niederschlag: - Wind: 15,0 kt
Temperatur (min.): 0,6 °C Luftdruck: 985 hPa Windrichtung: 120 °
Temperatur (max.): 2,0 °C Luftfeuchtigkeit: 80 % Bewölkung: -

Flugschulen am Flugplatz Lübeck-Blankensee

Am Flugplatz Lübeck-Blankensee gibt es 2 Flugschulen.

Benachbarte Flugplätze und Flugschulen

Es gibt 5 weitere Flugplätze in einem Umkreis von 50 km um den Flugplatz Lübeck-Blankensee.

Jetzt anmelden

Passwort vergessen

Umfrage Archiv

Lasst Ihr Euch bei Überlandflügen von FIS begleiten?

Ja, immer!
44.8 %
Ja, unregelmäßig!
29.9 %
Ja, aber nur selten!
20.7 %
Nein, nie!
4.6 %
Stimmen: 87 | Diskussion
Anzeige: Roland Aircraft
Statistik Alle Mitglieder

Aktuell sind 24 Besucher online.

Anzeige: VFR Sprechfunk Simulator


Anzeige: Pocket FMS